Latest Weather Observations for Clare

IDS60801

Issued at 10:35 pm CST Wednesday 17 September 2014 (issued every 30 minutes, with the page automatically refreshed every 10 minutes)

About weather observations | Map of weather stations | Latest weather observations for SA | Other Formats
Station Details ID: 021131 Name: CLARE HIGH SCHOOL Lat: -33.82 Lon: 138.59 Height: 395.0 m
Data from the previous 72 hours. | See also: Recent months at Clare
Date/Time
CST
Temp
°C
App
Temp
°C
Dew
Point
Rel
Hum
%
Delta-T
°C
Wind Press
QNH
hPa
Press
MSL
hPa
Rain
since 9 am
mm
Dir
 
Spd
km/h
Gust
km/h
Spd
kts
Gust
kts
17/10:30pm 3.1 1.4 2.1 93 0.4 SE 0 0 0 0 1024.9 - 0.0
17/10:00pm 4.0 2.5 3.0 93 0.4 SE 0 0 0 0 1024.8 - 0.0
17/09:30pm 4.5 2.9 2.5 87 0.8 CALM 0 6 0 3 1024.8 - 0.0
17/09:00pm 5.6 3.4 3.3 85 1.0 SE 4 7 2 4 1024.4 1024.5 0.0
17/08:30pm 6.0 3.4 3.3 83 1.2 SE 6 7 3 4 1024.3 - 0.0
17/08:00pm 6.6 4.1 3.8 82 1.2 SE 6 6 3 3 1024.0 - 0.0
17/07:30pm 8.0 5.6 4.2 77 1.7 SSE 6 7 3 4 1023.7 - 0.0
17/07:00pm 8.8 6.3 4.6 75 1.9 S 7 11 4 6 1023.3 - 0.0
17/06:30pm 9.5 6.6 4.9 73 2.1 S 9 17 5 9 1022.9 - 0.0
17/06:00pm 10.5 7.7 5.3 70 2.4 S 9 17 5 9 1022.8 1023.0 0.0
17/05:30pm 11.6 8.1 5.5 66 2.9 S 13 24 7 13 1022.6 - 0.0
17/05:00pm 12.2 8.8 5.8 65 3.1 S 13 24 7 13 1022.3 - 0.0
17/04:30pm 13.2 9.5 6.1 62 3.4 S 15 28 8 15 1022.0 - 0.0
17/04:00pm 13.5 8.8 5.9 60 3.7 S 20 30 11 16 1021.7 - 0.0
17/03:30pm 14.6 9.8 5.7 55 4.3 WSW 20 32 11 17 1021.5 - 0.0
17/03:00pm 14.7 11.1 6.8 59 3.9 SSW 15 28 8 15 1021.4 1021.5 0.0
17/02:30pm 14.3 10.0 5.1 54 4.4 S 17 24 9 13 1021.5 - 0.0
17/02:00pm 14.3 9.8 4.3 51 4.7 WSW 17 30 9 16 1021.5 - 0.0
17/01:30pm 13.6 9.2 4.7 55 4.2 SSW 17 32 9 17 1021.6 - 0.0
17/01:00pm 13.3 8.9 5.0 57 3.9 SW 17 35 9 19 1021.8 - 0.0
17/12:30pm 13.0 8.2 4.9 58 3.8 S 19 28 10 15 1021.8 - 0.0
17/12:00pm 12.7 9.0 6.1 64 3.2 SSW 15 24 8 13 1022.0 1022.1 0.0
17/11:30am 12.3 8.9 6.1 66 3.0 SW 13 20 7 11 1022.2 - 0.0
17/11:00am 12.5 9.2 6.5 67 2.9 SW 13 20 7 11 1022.1 - 0.0
17/10:30am 11.3 8.1 6.8 74 2.2 SW 13 19 7 10 1022.2 - 0.0
17/10:00am 10.8 7.9 6.7 76 2.0 SW 11 24 6 13 1022.4 - 0.0
17/09:30am 10.2 7.7 8.0 86 1.1 SW 11 19 6 10 1022.3 - 0.0
17/09:00am 9.9 7.5 8.7 92 0.6 WSW 11 17 6 9 1022.2 1022.3 0.4
17/08:30am 9.2 7.1 8.3 94 0.4 WSW 9 13 5 7 1021.8 - 0.4
17/08:00am 8.4 7.1 7.6 95 0.4 SSW 4 9 2 5 1021.6 - 0.4
17/07:30am 7.5 6.9 7.2 98 0.1 CALM 0 0 0 0 1021.2 - 0.4
17/07:00am 6.7 5.9 6.6 99 0.0 CALM 0 0 0 0 1020.8 - 0.4
17/06:30am 6.6 5.8 6.3 98 0.1 CALM 0 0 0 0 1020.4 - 0.4
17/06:00am 6.1 5.1 5.7 97 0.2 CALM 0 0 0 0 1020.1 1020.2 0.2
17/05:30am 5.9 4.9 5.5 97 0.2 CALM 0 0 0 0 1019.8 - 0.2
17/05:00am 6.2 5.2 5.6 96 0.3 CALM 0 0 0 0 1019.6 - 0.2
17/04:30am 5.9 4.8 5.3 96 0.3 CALM 0 0 0 0 1019.5 - 0.2
17/04:00am 5.4 4.2 4.8 96 0.3 CALM 0 0 0 0 1019.4 - 0.2
17/03:30am 4.8 3.4 3.8 93 0.4 CALM 0 0 0 0 1019.1 - 0.2
17/03:00am 6.3 5.0 4.1 86 1.0 CALM 0 0 0 0 1019.0 1019.1 0.2
17/02:30am 7.3 4.4 4.4 82 1.3 S 9 13 5 7 1018.9 - 0.2
17/02:00am 7.8 5.4 5.3 84 1.1 S 7 11 4 6 1018.9 - 0.2
17/01:30am 8.1 6.0 6.6 90 0.7 S 7 17 4 9 1019.2 - 0.2
17/01:00am 8.2 5.8 6.8 91 0.7 SSW 9 19 5 10 1019.5 - 0.2
17/12:30am 8.4 5.4 7.5 94 0.4 SSW 13 20 7 11 1019.7 - 0.2
17/12:00am 8.6 6.4 8.0 96 0.3 SW 9 15 5 8 1019.8 1019.9 0.2
 
Date/Time
CST
Temp
°C
App
Temp
°C
Dew
Point
Rel
Hum
%
Delta-T
°C
Wind Press
QNH
hPa
Press
MSL
hPa
Rain
since 9 am
mm
Dir
 
Spd
km/h
Gust
km/h
Spd
kts
Gust
kts
16/11:30pm 8.7 6.6 8.1 96 0.3 WSW 9 17 5 9 1019.9 - 0.2
16/11:00pm 8.9 6.5 8.6 98 0.1 WSW 11 19 6 10 1020.0 - 0.2
16/10:30pm 9.1 6.8 9.1 100 0.0 WSW 11 17 6 9 1019.9 - 0.2
16/10:00pm 9.2 7.0 9.2 100 0.0 SW 11 17 6 9 1019.7 - 0.2
16/09:30pm 9.4 6.8 9.3 99 0.1 SW 13 24 7 13 1019.6 - 0.2
16/09:00pm 9.4 7.2 9.3 99 0.1 SSW 11 17 6 9 1019.4 1019.5 0.2
16/08:30pm 9.6 7.2 8.7 94 0.4 SSW 11 20 6 11 1019.2 - 0.0
16/08:00pm 10.0 7.5 8.1 88 0.9 SSW 11 19 6 10 1018.7 - 0.0
16/07:30pm 10.7 7.7 7.6 81 1.5 SSW 13 19 7 10 1018.6 - 0.0
16/07:00pm 11.3 8.6 5.8 69 2.6 SW 9 20 5 11 1018.2 - 0.0
16/06:30pm 11.7 8.2 5.6 66 2.9 SW 13 19 7 10 1017.8 - 0.0
16/06:00pm 12.1 8.6 5.3 63 3.2 SW 13 19 7 10 1017.4 1017.5 0.0
16/05:30pm 13.0 10.0 5.9 62 3.4 SW 11 19 6 10 1017.2 - 0.0
16/05:00pm 13.6 10.3 6.5 62 3.5 SW 13 22 7 12 1017.1 - 0.0
16/04:30pm 13.7 9.9 5.6 58 3.9 WSW 15 26 8 14 1016.8 - 0.0
16/04:00pm 14.1 10.2 6.9 62 3.6 W 17 26 9 14 1016.8 - 0.0
16/03:30pm 14.7 11.9 6.8 59 3.9 SW 11 26 6 14 1016.6 - 0.0
16/03:00pm 13.9 10.8 7.2 64 3.3 SW 13 20 7 11 1016.8 1016.9 0.0
16/02:30pm 13.2 10.3 8.1 71 2.6 WSW 13 19 7 10 1017.0 - 0.0
16/02:00pm 12.8 10.2 9.3 79 1.8 S 13 20 7 11 1017.2 - 0.0
16/01:30pm 14.2 10.3 8.6 69 2.9 W 19 33 10 18 1017.2 - 0.0
16/01:00pm 13.6 10.9 8.9 73 2.4 WSW 13 24 7 13 1017.6 - 0.0
16/12:30pm 13.1 10.5 7.8 70 2.7 WSW 11 22 6 12 1018.0 - 0.0
16/12:00pm 13.5 11.0 8.4 71 2.6 SW 11 17 6 9 1018.2 1018.2 0.0
16/11:30am 14.1 11.7 9.9 76 2.2 SW 13 24 7 13 1018.5 - 0.0
16/11:00am 12.3 9.6 9.0 80 1.7 WSW 13 20 7 11 1018.8 - 0.0
16/10:30am 11.8 9.4 8.6 81 1.6 SW 11 20 6 11 1018.8 - 0.0
16/10:00am 11.3 9.2 9.9 91 0.7 SW 11 17 6 9 1019.1 - 0.0
16/09:30am 10.9 8.8 9.8 93 0.6 SW 11 20 6 11 1019.2 - 0.0
16/09:00am 10.2 8.5 9.9 98 0.2 WSW 9 15 5 8 1019.3 1019.4 2.4
16/08:30am 9.9 7.8 9.9 100 0.0 WSW 11 17 6 9 1019.2 - 2.4
16/08:00am 9.6 - 9.7 - - WSW 9 17 5 9 1019.0 - 2.4
16/07:30am 9.2 - 9.5 - - SW 11 17 6 9 1018.7 - 2.4
16/07:00am 9.1 - 9.4 - - SW 13 19 7 10 1018.5 - 2.4
16/06:30am 8.9 - 9.0 - - WSW 9 17 5 9 1018.3 - 2.4
16/06:00am 8.9 - 9.0 - - SW 6 13 3 7 1018.0 1018.0 2.4
16/05:30am 8.8 - 8.9 - - SW 7 11 4 6 1017.7 - 2.4
16/05:00am 8.8 - 8.9 - - WSW 9 17 5 9 1017.7 - 2.4
16/04:30am 8.8 - 8.9 - - SW 11 19 6 10 1017.4 - 2.4
16/04:00am 9.0 - 9.1 - - SW 9 17 5 9 1017.2 - 2.4
16/03:30am 9.0 - 9.1 - - SW 9 19 5 10 1016.8 - 2.4
16/03:00am 8.9 - 9.0 - - SSW 11 20 6 11 1016.8 1016.9 2.4
16/02:30am 8.8 - 8.9 - - SSW 9 17 5 9 1017.1 - 2.4
16/02:00am 8.8 - 8.9 - - SW 9 19 5 10 1017.2 - 2.4
16/01:30am 8.8 - 8.9 - - SW 9 15 5 8 1017.3 - 2.4
16/01:00am 8.8 - 8.9 - - SSW 7 11 4 6 1017.4 - 2.4
16/12:30am 8.9 - 9.0 - - SW 11 20 6 11 1017.6 - 2.4
16/12:00am 8.8 - 8.9 - - SW 9 17 5 9 1017.8 1017.9 2.4
 
Date/Time
CST
Temp
°C
App
Temp
°C
Dew
Point
Rel
Hum
%
Delta-T
°C
Wind Press
QNH
hPa
Press
MSL
hPa
Rain
since 9 am
mm
Dir
 
Spd
km/h
Gust
km/h
Spd
kts
Gust
kts
15/11:30pm 8.7 6.7 8.7 100 0.0 WSW 9 17 5 9 1017.7 - 2.4
15/11:00pm 9.1 7.6 9.1 100 0.0 WSW 7 15 4 8 1017.5 - 2.0
15/10:30pm 9.1 6.8 9.1 100 0.0 WSW 11 20 6 11 1017.5 - 2.0
15/10:00pm 9.3 6.7 9.3 100 0.0 WSW 13 20 7 11 1017.5 - 2.0
15/09:30pm 9.6 7.8 9.5 99 0.1 SSW 9 15 5 8 1017.6 - 1.4
15/09:00pm 9.7 8.3 9.4 98 0.2 SW 7 15 4 8 1017.4 1017.5 1.2
15/08:30pm 9.7 7.5 9.4 98 0.2 SW 11 20 6 11 1017.5 - 1.2
15/08:00pm 10.1 8.0 9.6 97 0.3 SW 11 19 6 10 1017.0 - 1.2
15/07:30pm 10.5 8.0 9.7 95 0.4 SSW 13 24 7 13 1016.8 - 1.2
15/07:00pm 10.6 8.2 10.0 96 0.3 SSW 13 24 7 13 1016.5 - 1.2
15/06:30pm 10.6 8.2 10.1 97 0.3 SSW 13 20 7 11 1016.1 - 1.2
15/06:00pm 10.7 7.2 10.2 97 0.3 SSW 19 33 10 18 1015.7 1015.7 1.2
15/05:30pm 11.5 9.0 11.2 98 0.2 SW 15 35 8 19 1015.1 - 1.0
15/05:00pm 11.7 8.3 11.2 97 0.3 SSW 20 35 11 19 1014.8 - 0.6
15/04:30pm 12.2 9.0 11.4 95 0.4 SW 19 32 10 17 1014.6 - 0.6
15/04:00pm 12.9 9.8 10.4 85 1.3 SSW 17 28 9 15 1014.2 - 0.0
15/03:30pm 13.1 9.7 10.5 84 1.4 SSW 19 33 10 18 1014.0 - 0.0
15/03:00pm 13.6 9.2 9.1 74 2.3 SSW 22 39 12 21 1013.8 1013.8 0.0
15/02:30pm 14.2 9.9 9.4 73 2.5 SW 22 37 12 20 1013.6 - 0.0
15/02:05pm 14.4 8.9 9.2 71 2.7 SSW 28 50 15 27 1013.2 - 0.0
15/02:00pm 14.4 9.8 9.8 74 2.4 SSW 24 44 13 24 1013.2 - 0.0
15/01:30pm 14.5 8.7 9.3 71 2.7 SW 30 54 16 29 1013.0 - 0.0
15/01:00pm 14.4 9.0 9.6 73 2.5 SW 28 48 15 26 1012.7 - 0.0
15/12:40pm 13.4 8.2 10.2 81 1.7 WSW 28 46 15 25 1012.7 - 0.0
15/12:30pm 13.2 9.6 10.6 84 1.4 WSW 20 33 11 18 1012.7 - 0.0
15/12:00pm 13.9 10.1 11.1 83 1.5 WSW 22 39 12 21 1012.6 1012.6 0.0
15/11:49am 12.4 7.3 10.6 89 1.0 WSW 28 52 15 28 1012.6 - 0.0
15/11:30am 12.1 8.2 10.8 92 0.7 WSW 22 39 12 21 1012.6 - 0.0
15/11:00am 12.7 8.4 10.6 87 1.1 W 24 41 13 22 1012.3 - 0.0
15/10:30am 12.7 7.0 11.1 90 0.9 W 32 50 17 27 1012.3 - 0.0
15/10:08am 12.8 7.9 11.2 90 0.9 W 28 46 15 25 1012.2 - 0.0
15/10:00am 12.4 7.8 11.0 91 0.7 W 26 43 14 23 1012.2 - 0.0
15/09:30am 12.0 8.1 10.9 93 0.6 W 22 37 12 20 1012.3 - 0.0
15/09:00am 11.9 8.1 11.3 96 0.3 W 22 39 12 21 1012.2 1012.3 0.0
15/08:30am 11.5 8.1 11.2 98 0.2 W 20 44 11 24 1012.3 - 0.0
15/08:00am 11.2 7.7 10.9 98 0.2 W 20 37 11 20 1012.1 - 0.0
15/07:30am 10.8 6.7 10.0 95 0.4 WNW 22 32 12 17 1011.8 - 0.0
15/07:00am 10.8 6.6 9.6 92 0.6 WNW 22 33 12 18 1011.5 - 0.0
15/06:30am 10.8 6.1 9.1 89 0.9 WNW 24 33 13 18 1011.0 - 0.0
15/06:00am 10.6 6.5 8.7 88 1.0 WNW 20 33 11 18 1010.7 1010.7 0.0
15/05:30am 10.3 6.4 8.7 90 0.8 WNW 19 32 10 17 1010.7 - 0.0
15/05:00am 10.5 7.0 8.8 89 0.9 WNW 17 28 9 15 1010.8 - 0.0
15/04:30am 10.3 7.1 8.4 88 0.9 WNW 15 28 8 15 1010.9 - 0.0
15/04:00am 9.7 7.3 8.6 93 0.5 WNW 11 17 6 9 1011.0 - 0.0
15/03:30am 9.5 6.6 8.3 92 0.6 WNW 13 24 7 13 1011.2 - 0.0
15/03:00am 10.2 7.5 9.0 92 0.6 NW 13 20 7 11 1011.5 1011.5 0.0
15/02:30am 9.3 7.3 8.7 96 0.3 WNW 9 13 5 7 1011.9 - 0.0
15/02:00am 8.7 7.0 7.5 92 0.6 WNW 6 9 3 5 1012.1 - 0.0
15/01:30am 9.6 7.8 7.9 89 0.8 NW 7 9 4 5 1012.8 - 0.0
15/01:00am 10.6 8.1 8.4 86 1.1 W 11 19 6 10 1013.2 - 0.0
15/12:30am 11.0 9.2 7.9 81 1.5 W 7 13 4 7 1013.6 - 0.0
15/12:00am 11.2 9.5 7.5 78 1.8 W 6 9 3 5 1013.7 1013.7 0.0
 
Date/Time
CST
Temp
°C
App
Temp
°C
Dew
Point
Rel
Hum
%
Delta-T
°C
Wind Press
QNH
hPa
Press
MSL
hPa
Rain
since 9 am
mm
Dir
 
Spd
km/h
Gust
km/h
Spd
kts
Gust
kts
14/11:30pm 12.6 10.8 8.1 74 2.3 SSW 7 13 4 7 1013.6 - 0.0
14/11:00pm 13.2 11.5 7.6 69 2.8 S 6 11 3 6 1013.7 - 0.0

Other Formats:

Comma delimited format used in spreadsheet applications
http://www.bom.gov.au/fwo/IDS60801/IDS60801.95667.axf

JavaScript Object Notation format (JSON) in row-major order
http://www.bom.gov.au/fwo/IDS60801/IDS60801.95667.json